sensor_id;sensor_type;location;lat;lon;timestamp;temperature;humidity
30308;DHT22;17114;52.314;8.910;2023-01-01T00:00:56;16.10;99.90
30308;DHT22;17114;52.314;8.910;2023-01-01T00:03:24;16.10;99.90
30308;DHT22;17114;52.314;8.910;2023-01-01T00:05:51;16.10;99.90
30308;DHT22;17114;52.314;8.910;2023-01-01T00:08:19;16.10;99.90
30308;DHT22;17114;52.314;8.910;2023-01-01T00:10:49;16.20;99.90
30308;DHT22;17114;52.314;8.910;2023-01-01T00:13:19;16.20;99.90
30308;DHT22;17114;52.314;8.910;2023-01-01T00:15:46;16.20;99.90
30308;DHT22;17114;52.314;8.910;2023-01-01T00:18:14;16.20;99.90
30308;DHT22;17114;52.314;8.910;2023-01-01T00:20:41;16.20;99.90
30308;DHT22;17114;52.314;8.910;2023-01-01T00:23:08;16.20;99.90
30308;DHT22;17114;52.314;8.910;2023-01-01T00:25:36;16.30;99.90
30308;DHT22;17114;52.314;8.910;2023-01-01T00:28:06;16.30;99.90
30308;DHT22;17114;52.314;8.910;2023-01-01T00:30:38;16.30;99.90
30308;DHT22;17114;52.314;8.910;2023-01-01T00:33:07;16.30;99.90
30308;DHT22;17114;52.314;8.910;2023-01-01T00:35:34;16.20;99.90
30308;DHT22;17114;52.314;8.910;2023-01-01T00:38:05;16.30;99.90
30308;DHT22;17114;52.314;8.910;2023-01-01T00:40:37;16.30;99.90
30308;DHT22;17114;52.314;8.910;2023-01-01T00:43:04;16.30;99.90
30308;DHT22;17114;52.314;8.910;2023-01-01T00:45:32;16.20;99.90
30308;DHT22;17114;52.314;8.910;2023-01-01T00:48:00;16.20;99.90
30308;DHT22;17114;52.314;8.910;2023-01-01T00:50:28;16.20;99.90
30308;DHT22;17114;52.314;8.910;2023-01-01T00:52:57;16.20;99.90
30308;DHT22;17114;52.314;8.910;2023-01-01T00:55:26;16.20;99.90
30308;DHT22;17114;52.314;8.910;2023-01-01T00:57:55;16.30;99.90
30308;DHT22;17114;52.314;8.910;2023-01-01T01:00:23;16.30;99.90
30308;DHT22;17114;52.314;8.910;2023-01-01T01:02:50;16.30;99.90
30308;DHT22;17114;52.314;8.910;2023-01-01T01:05:19;16.30;99.90
30308;DHT22;17114;52.314;8.910;2023-01-01T01:07:46;16.30;99.90
30308;DHT22;17114;52.314;8.910;2023-01-01T01:10:14;16.30;99.90
30308;DHT22;17114;52.314;8.910;2023-01-01T01:12:54;16.30;99.90
30308;DHT22;17114;52.314;8.910;2023-01-01T01:15:26;16.30;99.90
30308;DHT22;17114;52.314;8.910;2023-01-01T01:17:54;16.30;99.90
30308;DHT22;17114;52.314;8.910;2023-01-01T01:20:21;16.40;99.90
30308;DHT22;17114;52.314;8.910;2023-01-01T01:22:49;16.40;99.90
30308;DHT22;17114;52.314;8.910;2023-01-01T01:25:17;16.30;99.90
30308;DHT22;17114;52.314;8.910;2023-01-01T01:27:46;16.30;99.90
30308;DHT22;17114;52.314;8.910;2023-01-01T01:30:25;16.20;99.90
30308;DHT22;17114;52.314;8.910;2023-01-01T01:32:59;16.20;99.90
30308;DHT22;17114;52.314;8.910;2023-01-01T01:35:26;16.10;99.90
30308;DHT22;17114;52.314;8.910;2023-01-01T01:37:56;16.10;99.90
30308;DHT22;17114;52.314;8.910;2023-01-01T01:40:24;16.00;99.90
30308;DHT22;17114;52.314;8.910;2023-01-01T01:42:51;16.00;99.90
30308;DHT22;17114;52.314;8.910;2023-01-01T01:45:19;16.00;99.90
30308;DHT22;17114;52.314;8.910;2023-01-01T01:47:55;16.00;99.90
30308;DHT22;17114;52.314;8.910;2023-01-01T01:50:37;16.00;99.90
30308;DHT22;17114;52.314;8.910;2023-01-01T01:53:19;16.10;99.90
30308;DHT22;17114;52.314;8.910;2023-01-01T01:56:11;16.20;99.90
30308;DHT22;17114;52.314;8.910;2023-01-01T01:58:41;16.20;99.90
30308;DHT22;17114;52.314;8.910;2023-01-01T02:01:10;16.10;99.90
30308;DHT22;17114;52.314;8.910;2023-01-01T02:03:56;16.10;99.90
30308;DHT22;17114;52.314;8.910;2023-01-01T02:06:28;16.10;99.90
30308;DHT22;17114;52.314;8.910;2023-01-01T02:09:00;16.20;99.90
30308;DHT22;17114;52.314;8.910;2023-01-01T02:11:27;16.30;99.90
30308;DHT22;17114;52.314;8.910;2023-01-01T02:13:55;16.30;99.90
30308;DHT22;17114;52.314;8.910;2023-01-01T02:16:48;16.30;99.90
30308;DHT22;17114;52.314;8.910;2023-01-01T02:30:28;16.10;99.90
30308;DHT22;17114;52.314;8.910;2023-01-01T02:33:00;16.10;99.90
30308;DHT22;17114;52.314;8.910;2023-01-01T02:35:32;16.10;99.90
30308;DHT22;17114;52.314;8.910;2023-01-01T02:41:03;16.00;99.90
30308;DHT22;17114;52.314;8.910;2023-01-01T02:43:32;16.00;99.90
30308;DHT22;17114;52.314;8.910;2023-01-01T02:46:08;16.00;99.90
30308;DHT22;17114;52.314;8.910;2023-01-01T02:51:34;16.00;99.90
30308;DHT22;17114;52.314;8.910;2023-01-01T03:00:03;15.90;99.90
30308;DHT22;17114;52.314;8.910;2023-01-01T03:03:39;15.80;99.90
30308;DHT22;17114;52.314;8.910;2023-01-01T03:05:51;15.80;99.90
30308;DHT22;17114;52.314;8.910;2023-01-01T03:09:06;15.80;99.90
30308;DHT22;17114;52.314;8.910;2023-01-01T03:11:53;15.80;99.90
30308;DHT22;17114;52.314;8.910;2023-01-01T03:19:44;15.80;99.90
30308;DHT22;17114;52.314;8.910;2023-01-01T03:22:18;15.90;99.90
30308;DHT22;17114;52.314;8.910;2023-01-01T03:24:57;15.90;99.90
30308;DHT22;17114;52.314;8.910;2023-01-01T03:27:33;15.90;99.90
30308;DHT22;17114;52.314;8.910;2023-01-01T03:30:07;15.80;99.90
30308;DHT22;17114;52.314;8.910;2023-01-01T03:32:42;15.80;99.90
30308;DHT22;17114;52.314;8.910;2023-01-01T03:35:52;15.70;99.90
30308;DHT22;17114;52.314;8.910;2023-01-01T03:38:29;15.70;99.90
30308;DHT22;17114;52.314;8.910;2023-01-01T03:41:33;15.70;99.90
30308;DHT22;17114;52.314;8.910;2023-01-01T03:44:00;15.80;99.90
30308;DHT22;17114;52.314;8.910;2023-01-01T03:46:33;15.70;99.90
30308;DHT22;17114;52.314;8.910;2023-01-01T03:49:05;15.70;99.90
30308;DHT22;17114;52.314;8.910;2023-01-01T03:52:00;15.70;99.90
30308;DHT22;17114;52.314;8.910;2023-01-01T03:54:46;15.80;99.90
30308;DHT22;17114;52.314;8.910;2023-01-01T03:57:32;15.80;99.90
30308;DHT22;17114;52.314;8.910;2023-01-01T04:00:19;15.70;99.90
30308;DHT22;17114;52.314;8.910;2023-01-01T04:05:26;15.60;99.90
30308;DHT22;17114;52.314;8.910;2023-01-01T04:07:55;15.50;99.90
30308;DHT22;17114;52.314;8.910;2023-01-01T04:10:23;15.50;99.90
30308;DHT22;17114;52.314;8.910;2023-01-01T04:12:55;15.50;99.90
30308;DHT22;17114;52.314;8.910;2023-01-01T04:15:27;15.50;99.90
30308;DHT22;17114;52.314;8.910;2023-01-01T04:17:55;15.50;99.90
30308;DHT22;17114;52.314;8.910;2023-01-01T04:20:24;15.40;99.90
30308;DHT22;17114;52.314;8.910;2023-01-01T04:22:55;15.40;99.90
30308;DHT22;17114;52.314;8.910;2023-01-01T04:25:24;15.30;99.90
30308;DHT22;17114;52.314;8.910;2023-01-01T04:27:52;15.30;99.90
30308;DHT22;17114;52.314;8.910;2023-01-01T04:30:19;15.30;99.90
30308;DHT22;17114;52.314;8.910;2023-01-01T04:32:47;15.30;99.90
30308;DHT22;17114;52.314;8.910;2023-01-01T04:35:14;15.30;99.90
30308;DHT22;17114;52.314;8.910;2023-01-01T04:37:43;15.30;99.90
30308;DHT22;17114;52.314;8.910;2023-01-01T04:40:11;15.40;99.90
30308;DHT22;17114;52.314;8.910;2023-01-01T04:42:40;15.30;99.90
30308;DHT22;17114;52.314;8.910;2023-01-01T04:45:08;15.30;99.90
30308;DHT22;17114;52.314;8.910;2023-01-01T04:47:38;15.30;99.90
30308;DHT22;17114;52.314;8.910;2023-01-01T04:50:08;15.30;99.90
30308;DHT22;17114;52.314;8.910;2023-01-01T04:52:36;15.30;99.90
30308;DHT22;17114;52.314;8.910;2023-01-01T04:55:04;15.30;99.90
30308;DHT22;17114;52.314;8.910;2023-01-01T04:57:32;15.30;99.90
30308;DHT22;17114;52.314;8.910;2023-01-01T04:59:59;15.30;99.90
30308;DHT22;17114;52.314;8.910;2023-01-01T05:02:26;15.30;99.90
30308;DHT22;17114;52.314;8.910;2023-01-01T05:04:54;15.30;99.90
30308;DHT22;17114;52.314;8.910;2023-01-01T05:07:22;15.30;99.90
30308;DHT22;17114;52.314;8.910;2023-01-01T05:09:49;15.30;99.90
30308;DHT22;17114;52.314;8.910;2023-01-01T05:12:16;15.20;99.90
30308;DHT22;17114;52.314;8.910;2023-01-01T05:14:43;15.20;99.90
30308;DHT22;17114;52.314;8.910;2023-01-01T05:17:11;15.30;99.90
30308;DHT22;17114;52.314;8.910;2023-01-01T05:19:38;15.30;99.90
30308;DHT22;17114;52.314;8.910;2023-01-01T05:22:07;15.30;99.90
30308;DHT22;17114;52.314;8.910;2023-01-01T05:24:37;15.30;99.90
30308;DHT22;17114;52.314;8.910;2023-01-01T05:27:04;15.30;99.90
30308;DHT22;17114;52.314;8.910;2023-01-01T05:29:31;15.20;99.90
30308;DHT22;17114;52.314;8.910;2023-01-01T05:31:58;15.20;99.90
30308;DHT22;17114;52.314;8.910;2023-01-01T05:34:26;15.20;99.90
30308;DHT22;17114;52.314;8.910;2023-01-01T05:36:53;15.20;99.90
30308;DHT22;17114;52.314;8.910;2023-01-01T05:39:22;15.20;99.90
30308;DHT22;17114;52.314;8.910;2023-01-01T05:41:50;15.20;99.90
30308;DHT22;17114;52.314;8.910;2023-01-01T05:44:17;15.20;99.90
30308;DHT22;17114;52.314;8.910;2023-01-01T05:46:46;15.20;99.90
30308;DHT22;17114;52.314;8.910;2023-01-01T05:49:13;15.20;99.90
30308;DHT22;17114;52.314;8.910;2023-01-01T05:51:41;15.10;99.90
30308;DHT22;17114;52.314;8.910;2023-01-01T05:54:10;15.10;99.90
30308;DHT22;17114;52.314;8.910;2023-01-01T05:56:36;15.00;99.90
30308;DHT22;17114;52.314;8.910;2023-01-01T05:59:03;15.00;99.90
30308;DHT22;17114;52.314;8.910;2023-01-01T06:01:31;15.00;99.90
30308;DHT22;17114;52.314;8.910;2023-01-01T06:03:58;15.10;99.90
30308;DHT22;17114;52.314;8.910;2023-01-01T06:06:29;15.10;99.90
30308;DHT22;17114;52.314;8.910;2023-01-01T06:08:58;15.20;99.90
30308;DHT22;17114;52.314;8.910;2023-01-01T06:11:27;15.10;99.90
30308;DHT22;17114;52.314;8.910;2023-01-01T06:13:57;15.10;99.90
30308;DHT22;17114;52.314;8.910;2023-01-01T06:16:26;15.10;99.90
30308;DHT22;17114;52.314;8.910;2023-01-01T06:18:54;15.10;99.90
30308;DHT22;17114;52.314;8.910;2023-01-01T06:21:25;15.10;99.90
30308;DHT22;17114;52.314;8.910;2023-01-01T06:23:55;15.10;99.90
30308;DHT22;17114;52.314;8.910;2023-01-01T06:26:28;15.00;99.90
30308;DHT22;17114;52.314;8.910;2023-01-01T06:28:57;15.00;99.90
30308;DHT22;17114;52.314;8.910;2023-01-01T06:31:26;14.90;99.90
30308;DHT22;17114;52.314;8.910;2023-01-01T06:33:54;14.90;99.90
30308;DHT22;17114;52.314;8.910;2023-01-01T06:36:23;14.90;99.90
30308;DHT22;17114;52.314;8.910;2023-01-01T06:38:53;14.80;99.90
30308;DHT22;17114;52.314;8.910;2023-01-01T06:41:26;14.80;99.90
30308;DHT22;17114;52.314;8.910;2023-01-01T06:43:55;14.70;99.90
30308;DHT22;17114;52.314;8.910;2023-01-01T06:48:56;14.70;99.90
30308;DHT22;17114;52.314;8.910;2023-01-01T06:51:29;14.70;99.90
30308;DHT22;17114;52.314;8.910;2023-01-01T06:53:58;14.70;99.90
30308;DHT22;17114;52.314;8.910;2023-01-01T06:56:26;14.80;99.90
30308;DHT22;17114;52.314;8.910;2023-01-01T06:58:54;14.80;99.90
30308;DHT22;17114;52.314;8.910;2023-01-01T07:01:24;14.80;99.90
30308;DHT22;17114;52.314;8.910;2023-01-01T07:03:53;14.80;99.90
30308;DHT22;17114;52.314;8.910;2023-01-01T07:06:22;14.80;99.90
30308;DHT22;17114;52.314;8.910;2023-01-01T07:08:50;14.70;99.90
30308;DHT22;17114;52.314;8.910;2023-01-01T07:11:18;14.70;99.90
30308;DHT22;17114;52.314;8.910;2023-01-01T07:13:46;14.70;99.90
30308;DHT22;17114;52.314;8.910;2023-01-01T07:16:14;14.80;99.90
30308;DHT22;17114;52.314;8.910;2023-01-01T07:18:41;14.70;99.90
30308;DHT22;17114;52.314;8.910;2023-01-01T07:21:25;14.80;99.90
30308;DHT22;17114;52.314;8.910;2023-01-01T07:23:56;14.80;99.90
30308;DHT22;17114;52.314;8.910;2023-01-01T07:26:25;14.80;99.90
30308;DHT22;17114;52.314;8.910;2023-01-01T07:28:53;14.80;99.90
30308;DHT22;17114;52.314;8.910;2023-01-01T07:31:30;14.80;99.90
30308;DHT22;17114;52.314;8.910;2023-01-01T07:33:58;14.80;99.90
30308;DHT22;17114;52.314;8.910;2023-01-01T07:36:25;14.80;99.90
30308;DHT22;17114;52.314;8.910;2023-01-01T07:38:53;14.70;99.90
30308;DHT22;17114;52.314;8.910;2023-01-01T07:41:20;14.80;99.90
30308;DHT22;17114;52.314;8.910;2023-01-01T07:43:48;14.80;99.90
30308;DHT22;17114;52.314;8.910;2023-01-01T07:46:15;14.80;99.90
30308;DHT22;17114;52.314;8.910;2023-01-01T07:48:45;14.80;99.90
30308;DHT22;17114;52.314;8.910;2023-01-01T07:51:12;14.80;99.90
30308;DHT22;17114;52.314;8.910;2023-01-01T07:53:40;14.80;99.90
30308;DHT22;17114;52.314;8.910;2023-01-01T07:56:07;14.70;99.90
30308;DHT22;17114;52.314;8.910;2023-01-01T07:58:42;14.70;99.90
30308;DHT22;17114;52.314;8.910;2023-01-01T08:01:10;14.70;99.90
30308;DHT22;17114;52.314;8.910;2023-01-01T08:03:38;14.70;99.90
30308;DHT22;17114;52.314;8.910;2023-01-01T08:06:12;14.60;99.90
30308;DHT22;17114;52.314;8.910;2023-01-01T08:08:40;14.50;99.90
30308;DHT22;17114;52.314;8.910;2023-01-01T08:11:07;14.40;99.90
30308;DHT22;17114;52.314;8.910;2023-01-01T08:13:35;14.20;99.90
30308;DHT22;17114;52.314;8.910;2023-01-01T08:16:03;14.10;99.90
30308;DHT22;17114;52.314;8.910;2023-01-01T08:18:31;14.00;99.90
30308;DHT22;17114;52.314;8.910;2023-01-01T08:20:59;14.00;99.90
30308;DHT22;17114;52.314;8.910;2023-01-01T08:23:27;14.00;99.90
30308;DHT22;17114;52.314;8.910;2023-01-01T08:26:00;13.90;99.90
30308;DHT22;17114;52.314;8.910;2023-01-01T08:28:30;13.90;99.90
30308;DHT22;17114;52.314;8.910;2023-01-01T08:30:57;13.90;99.90
30308;DHT22;17114;52.314;8.910;2023-01-01T08:33:26;14.00;99.90
30308;DHT22;17114;52.314;8.910;2023-01-01T08:35:54;13.90;99.90
30308;DHT22;17114;52.314;8.910;2023-01-01T08:38:21;13.80;99.90
30308;DHT22;17114;52.314;8.910;2023-01-01T08:40:49;13.80;99.90
30308;DHT22;17114;52.314;8.910;2023-01-01T08:43:16;13.80;99.90
30308;DHT22;17114;52.314;8.910;2023-01-01T08:45:44;13.80;99.90
30308;DHT22;17114;52.314;8.910;2023-01-01T08:48:13;13.80;99.90
30308;DHT22;17114;52.314;8.910;2023-01-01T08:50:41;13.80;99.90
30308;DHT22;17114;52.314;8.910;2023-01-01T08:53:08;13.70;99.90
30308;DHT22;17114;52.314;8.910;2023-01-01T08:55:35;13.70;99.90
30308;DHT22;17114;52.314;8.910;2023-01-01T08:58:05;13.70;99.90
30308;DHT22;17114;52.314;8.910;2023-01-01T09:00:33;13.60;99.90
30308;DHT22;17114;52.314;8.910;2023-01-01T09:03:00;13.60;99.90
30308;DHT22;17114;52.314;8.910;2023-01-01T09:05:28;13.50;99.90
30308;DHT22;17114;52.314;8.910;2023-01-01T09:07:56;13.50;99.90
30308;DHT22;17114;52.314;8.910;2023-01-01T09:10:23;13.40;99.90
30308;DHT22;17114;52.314;8.910;2023-01-01T09:12:50;13.40;99.90
30308;DHT22;17114;52.314;8.910;2023-01-01T09:15:18;13.30;99.90
30308;DHT22;17114;52.314;8.910;2023-01-01T09:17:45;13.20;99.90
30308;DHT22;17114;52.314;8.910;2023-01-01T09:20:12;13.10;99.90
30308;DHT22;17114;52.314;8.910;2023-01-01T09:22:39;13.00;99.90
30308;DHT22;17114;52.314;8.910;2023-01-01T09:25:08;12.90;99.90
30308;DHT22;17114;52.314;8.910;2023-01-01T09:27:37;12.80;99.90
30308;DHT22;17114;52.314;8.910;2023-01-01T09:30:06;12.80;99.90
30308;DHT22;17114;52.314;8.910;2023-01-01T09:32:34;12.80;99.90
30308;DHT22;17114;52.314;8.910;2023-01-01T09:35:03;12.80;99.90
30308;DHT22;17114;52.314;8.910;2023-01-01T09:37:31;12.80;99.90
30308;DHT22;17114;52.314;8.910;2023-01-01T09:39:58;12.70;99.90
30308;DHT22;17114;52.314;8.910;2023-01-01T09:42:28;12.60;99.90
30308;DHT22;17114;52.314;8.910;2023-01-01T09:45:24;12.50;99.90
30308;DHT22;17114;52.314;8.910;2023-01-01T09:48:13;12.40;99.90
30308;DHT22;17114;52.314;8.910;2023-01-01T09:50:44;12.20;99.90
30308;DHT22;17114;52.314;8.910;2023-01-01T09:53:36;12.10;99.90
30308;DHT22;17114;52.314;8.910;2023-01-01T09:56:04;11.90;99.90
30308;DHT22;17114;52.314;8.910;2023-01-01T09:58:36;11.70;99.90
30308;DHT22;17114;52.314;8.910;2023-01-01T10:01:28;11.60;99.90
30308;DHT22;17114;52.314;8.910;2023-01-01T10:10:11;11.30;99.90
30308;DHT22;17114;52.314;8.910;2023-01-01T10:12:45;11.30;99.90
30308;DHT22;17114;52.314;8.910;2023-01-01T10:15:15;11.30;99.90
30308;DHT22;17114;52.314;8.910;2023-01-01T10:17:47;11.30;99.90
30308;DHT22;17114;52.314;8.910;2023-01-01T10:20:37;11.40;99.90
30308;DHT22;17114;52.314;8.910;2023-01-01T10:23:42;11.40;99.90
30308;DHT22;17114;52.314;8.910;2023-01-01T10:26:19;11.40;99.90
30308;DHT22;17114;52.314;8.910;2023-01-01T10:28:56;11.50;99.90
30308;DHT22;17114;52.314;8.910;2023-01-01T10:31:37;11.50;99.90
30308;DHT22;17114;52.314;8.910;2023-01-01T10:36:52;11.50;99.90
30308;DHT22;17114;52.314;8.910;2023-01-01T10:39:20;11.50;99.90
30308;DHT22;17114;52.314;8.910;2023-01-01T10:41:49;11.50;99.90
30308;DHT22;17114;52.314;8.910;2023-01-01T10:44:30;11.40;99.90
30308;DHT22;17114;52.314;8.910;2023-01-01T10:47:25;11.50;99.90
30308;DHT22;17114;52.314;8.910;2023-01-01T10:49:59;11.40;99.90
30308;DHT22;17114;52.314;8.910;2023-01-01T10:52:39;11.40;99.90
30308;DHT22;17114;52.314;8.910;2023-01-01T10:55:21;11.40;99.90
30308;DHT22;17114;52.314;8.910;2023-01-01T10:57:51;11.40;99.90
30308;DHT22;17114;52.314;8.910;2023-01-01T11:00:27;11.30;99.90
30308;DHT22;17114;52.314;8.910;2023-01-01T11:03:20;11.30;99.90
30308;DHT22;17114;52.314;8.910;2023-01-01T11:08:55;11.30;99.90
30308;DHT22;17114;52.314;8.910;2023-01-01T11:11:29;11.30;99.90
30308;DHT22;17114;52.314;8.910;2023-01-01T11:14:01;11.20;99.90
30308;DHT22;17114;52.314;8.910;2023-01-01T11:16:39;11.20;99.90
30308;DHT22;17114;52.314;8.910;2023-01-01T11:19:43;11.10;99.90
30308;DHT22;17114;52.314;8.910;2023-01-01T11:22:43;11.10;99.90
30308;DHT22;17114;52.314;8.910;2023-01-01T11:25:38;11.00;99.90
30308;DHT22;17114;52.314;8.910;2023-01-01T11:28:21;11.00;99.90
30308;DHT22;17114;52.314;8.910;2023-01-01T11:33:26;10.90;99.90
30308;DHT22;17114;52.314;8.910;2023-01-01T11:36:44;10.80;99.90
30308;DHT22;17114;52.314;8.910;2023-01-01T11:39:28;10.80;99.90
30308;DHT22;17114;52.314;8.910;2023-01-01T11:41:58;10.80;99.90
30308;DHT22;17114;52.314;8.910;2023-01-01T11:44:42;10.90;99.90
30308;DHT22;17114;52.314;8.910;2023-01-01T11:52:49;10.90;99.90
30308;DHT22;17114;52.314;8.910;2023-01-01T11:55:39;10.90;99.90
30308;DHT22;17114;52.314;8.910;2023-01-01T11:58:22;10.90;99.90
30308;DHT22;17114;52.314;8.910;2023-01-01T12:00:56;10.80;99.90
30308;DHT22;17114;52.314;8.910;2023-01-01T12:03:34;10.80;99.90
30308;DHT22;17114;52.314;8.910;2023-01-01T12:06:22;10.80;99.90
30308;DHT22;17114;52.314;8.910;2023-01-01T12:09:09;10.80;99.90
30308;DHT22;17114;52.314;8.910;2023-01-01T12:12:35;10.80;99.90
30308;DHT22;17114;52.314;8.910;2023-01-01T12:21:38;10.80;99.90
30308;DHT22;17114;52.314;8.910;2023-01-01T12:24:19;10.90;99.90
30308;DHT22;17114;52.314;8.910;2023-01-01T12:27:18;11.00;99.90
30308;DHT22;17114;52.314;8.910;2023-01-01T12:30:03;11.00;99.90
30308;DHT22;17114;52.314;8.910;2023-01-01T12:45:37;11.30;99.90
30308;DHT22;17114;52.314;8.910;2023-01-01T12:56:44;11.50;99.90
30308;DHT22;17114;52.314;8.910;2023-01-01T12:59:27;11.60;99.90
30308;DHT22;17114;52.314;8.910;2023-01-01T13:02:20;11.70;99.90
30308;DHT22;17114;52.314;8.910;2023-01-01T13:05:09;11.80;99.90
30308;DHT22;17114;52.314;8.910;2023-01-01T13:08:03;11.80;99.90
30308;DHT22;17114;52.314;8.910;2023-01-01T13:11:40;11.90;99.90
30308;DHT22;17114;52.314;8.910;2023-01-01T13:14:48;11.90;99.90
30308;DHT22;17114;52.314;8.910;2023-01-01T13:39:01;11.90;99.90
30308;DHT22;17114;52.314;8.910;2023-01-01T13:41:47;12.00;99.90
30308;DHT22;17114;52.314;8.910;2023-01-01T13:44:41;11.90;99.90
30308;DHT22;17114;52.314;8.910;2023-01-01T13:47:31;11.90;99.90
30308;DHT22;17114;52.314;8.910;2023-01-01T13:53:59;11.90;99.90
30308;DHT22;17114;52.314;8.910;2023-01-01T13:57:02;12.00;99.90
30308;DHT22;17114;52.314;8.910;2023-01-01T14:02:31;11.90;99.90
30308;DHT22;17114;52.314;8.910;2023-01-01T14:11:14;11.90;99.90
30308;DHT22;17114;52.314;8.910;2023-01-01T14:21:51;11.90;99.90
30308;DHT22;17114;52.314;8.910;2023-01-01T14:24:23;11.90;99.90
30308;DHT22;17114;52.314;8.910;2023-01-01T14:27:24;11.90;99.90
30308;DHT22;17114;52.314;8.910;2023-01-01T14:30:02;11.80;99.90
30308;DHT22;17114;52.314;8.910;2023-01-01T14:32:29;11.80;99.90
30308;DHT22;17114;52.314;8.910;2023-01-01T14:35:00;11.80;99.90
30308;DHT22;17114;52.314;8.910;2023-01-01T14:37:31;11.70;99.90
30308;DHT22;17114;52.314;8.910;2023-01-01T14:40:15;11.80;99.90
30308;DHT22;17114;52.314;8.910;2023-01-01T14:42:46;11.70;99.90
30308;DHT22;17114;52.314;8.910;2023-01-01T14:45:16;11.80;99.90
30308;DHT22;17114;52.314;8.910;2023-01-01T14:47:47;11.80;99.90
30308;DHT22;17114;52.314;8.910;2023-01-01T14:53:02;11.80;99.90
30308;DHT22;17114;52.314;8.910;2023-01-01T14:55:41;11.90;99.90
30308;DHT22;17114;52.314;8.910;2023-01-01T14:58:26;11.90;99.90
30308;DHT22;17114;52.314;8.910;2023-01-01T15:01:39;12.10;99.90
30308;DHT22;17114;52.314;8.910;2023-01-01T15:04:50;11.90;99.90
30308;DHT22;17114;52.314;8.910;2023-01-01T15:09:57;11.90;99.90
30308;DHT22;17114;52.314;8.910;2023-01-01T15:12:28;12.00;99.90
30308;DHT22;17114;52.314;8.910;2023-01-01T15:14:57;12.00;99.90
30308;DHT22;17114;52.314;8.910;2023-01-01T15:17:25;11.90;99.90
30308;DHT22;17114;52.314;8.910;2023-01-01T15:20:18;12.00;99.90
30308;DHT22;17114;52.314;8.910;2023-01-01T15:22:47;11.90;99.90
30308;DHT22;17114;52.314;8.910;2023-01-01T15:25:19;11.90;99.90
30308;DHT22;17114;52.314;8.910;2023-01-01T15:27:52;11.90;99.90
30308;DHT22;17114;52.314;8.910;2023-01-01T15:30:28;11.90;99.90
30308;DHT22;17114;52.314;8.910;2023-01-01T15:33:06;11.90;99.90
30308;DHT22;17114;52.314;8.910;2023-01-01T15:35:53;11.90;99.90
30308;DHT22;17114;52.314;8.910;2023-01-01T15:38:29;11.80;99.90
30308;DHT22;17114;52.314;8.910;2023-01-01T15:40:57;11.80;99.90
30308;DHT22;17114;52.314;8.910;2023-01-01T15:43:27;11.80;99.90
30308;DHT22;17114;52.314;8.910;2023-01-01T15:49:25;11.60;99.90
30308;DHT22;17114;52.314;8.910;2023-01-01T15:51:58;11.70;99.90
30308;DHT22;17114;52.314;8.910;2023-01-01T15:54:36;11.70;99.90
30308;DHT22;17114;52.314;8.910;2023-01-01T15:57:15;11.70;99.90
30308;DHT22;17114;52.314;8.910;2023-01-01T15:59:51;11.70;99.90
30308;DHT22;17114;52.314;8.910;2023-01-01T16:02:39;11.70;99.90
30308;DHT22;17114;52.314;8.910;2023-01-01T16:05:22;11.80;99.90
30308;DHT22;17114;52.314;8.910;2023-01-01T16:08:03;11.70;99.90
30308;DHT22;17114;52.314;8.910;2023-01-01T16:10:31;11.70;99.90
30308;DHT22;17114;52.314;8.910;2023-01-01T16:12:59;11.70;99.90
30308;DHT22;17114;52.314;8.910;2023-01-01T16:15:26;11.80;99.90
30308;DHT22;17114;52.314;8.910;2023-01-01T16:17:59;11.90;99.90
30308;DHT22;17114;52.314;8.910;2023-01-01T16:20:40;11.90;99.90
30308;DHT22;17114;52.314;8.910;2023-01-01T16:23:17;12.00;99.90
30308;DHT22;17114;52.314;8.910;2023-01-01T16:25:44;12.00;99.90
30308;DHT22;17114;52.314;8.910;2023-01-01T16:28:13;12.00;99.90
30308;DHT22;17114;52.314;8.910;2023-01-01T16:30:43;12.10;99.90
30308;DHT22;17114;52.314;8.910;2023-01-01T16:33:36;12.10;99.90
30308;DHT22;17114;52.314;8.910;2023-01-01T16:36:39;12.10;99.90
30308;DHT22;17114;52.314;8.910;2023-01-01T16:39:44;12.10;99.90
30308;DHT22;17114;52.314;8.910;2023-01-01T16:42:17;12.10;99.90
30308;DHT22;17114;52.314;8.910;2023-01-01T16:44:54;12.20;99.90
30308;DHT22;17114;52.314;8.910;2023-01-01T16:47:30;12.20;99.90
30308;DHT22;17114;52.314;8.910;2023-01-01T16:50:02;12.30;99.90
30308;DHT22;17114;52.314;8.910;2023-01-01T16:52:34;12.20;99.90
30308;DHT22;17114;52.314;8.910;2023-01-01T17:20:09;12.20;99.90
30308;DHT22;17114;52.314;8.910;2023-01-01T17:22:38;12.20;99.90
30308;DHT22;17114;52.314;8.910;2023-01-01T17:25:19;12.20;99.90
30308;DHT22;17114;52.314;8.910;2023-01-01T17:27:57;12.30;99.90
30308;DHT22;17114;52.314;8.910;2023-01-01T17:30:38;12.30;99.90
30308;DHT22;17114;52.314;8.910;2023-01-01T17:33:06;12.30;99.90
30308;DHT22;17114;52.314;8.910;2023-01-01T17:35:34;12.50;99.90
30308;DHT22;17114;52.314;8.910;2023-01-01T17:38:01;12.40;99.90
30308;DHT22;17114;52.314;8.910;2023-01-01T17:40:29;12.40;99.90
30308;DHT22;17114;52.314;8.910;2023-01-01T17:43:02;12.40;99.90
30308;DHT22;17114;52.314;8.910;2023-01-01T17:45:30;12.40;99.90
30308;DHT22;17114;52.314;8.910;2023-01-01T17:47:58;12.40;99.90
30308;DHT22;17114;52.314;8.910;2023-01-01T17:50:28;12.50;99.90
30308;DHT22;17114;52.314;8.910;2023-01-01T17:52:55;12.40;99.90
30308;DHT22;17114;52.314;8.910;2023-01-01T17:55:24;12.40;99.90
30308;DHT22;17114;52.314;8.910;2023-01-01T17:57:52;12.50;99.90
30308;DHT22;17114;52.314;8.910;2023-01-01T18:00:21;12.50;99.90
30308;DHT22;17114;52.314;8.910;2023-01-01T18:02:49;12.40;99.90
30308;DHT22;17114;52.314;8.910;2023-01-01T18:05:16;12.60;99.90
30308;DHT22;17114;52.314;8.910;2023-01-01T18:07:48;12.40;99.90
30308;DHT22;17114;52.314;8.910;2023-01-01T18:10:51;12.40;99.90
30308;DHT22;17114;52.314;8.910;2023-01-01T18:13:50;12.50;99.90
30308;DHT22;17114;52.314;8.910;2023-01-01T18:16:25;12.50;99.90
30308;DHT22;17114;52.314;8.910;2023-01-01T18:19:09;12.50;99.90
30308;DHT22;17114;52.314;8.910;2023-01-01T18:21:43;12.60;99.90
30308;DHT22;17114;52.314;8.910;2023-01-01T18:24:30;12.50;99.90
30308;DHT22;17114;52.314;8.910;2023-01-01T18:27:10;12.60;99.90
30308;DHT22;17114;52.314;8.910;2023-01-01T18:30:08;12.50;99.90
30308;DHT22;17114;52.314;8.910;2023-01-01T18:32:35;12.50;99.90
30308;DHT22;17114;52.314;8.910;2023-01-01T18:35:20;12.60;99.90
30308;DHT22;17114;52.314;8.910;2023-01-01T18:37:53;12.50;99.90
30308;DHT22;17114;52.314;8.910;2023-01-01T18:40:29;12.50;99.90
30308;DHT22;17114;52.314;8.910;2023-01-01T18:43:06;12.60;99.90
30308;DHT22;17114;52.314;8.910;2023-01-01T18:45:44;12.60;99.90
30308;DHT22;17114;52.314;8.910;2023-01-01T18:48:18;12.60;99.90
30308;DHT22;17114;52.314;8.910;2023-01-01T18:50:50;12.50;99.90
30308;DHT22;17114;52.314;8.910;2023-01-01T18:53:18;12.60;99.90